sensor_id;sensor_type;location;lat;lon;timestamp;pressure;altitude;pressure_sealevel;temperature;humidity
12969;BME280;6549;53.128;8.182;2023-10-31T00:00:57;99120.25;;;12.47;100.00
12969;BME280;6549;53.128;8.182;2023-10-31T00:03:58;99116.72;;;12.46;100.00
12969;BME280;6549;53.128;8.182;2023-10-31T00:06:58;99115.16;;;12.45;100.00
12969;BME280;6549;53.128;8.182;2023-10-31T00:09:58;99110.53;;;12.42;100.00
12969;BME280;6549;53.128;8.182;2023-10-31T00:12:59;99097.97;;;12.41;100.00
12969;BME280;6549;53.128;8.182;2023-10-31T00:15:59;99100.38;;;12.39;100.00
12969;BME280;6549;53.128;8.182;2023-10-31T00:18:59;99110.31;;;12.37;100.00
12969;BME280;6549;53.128;8.182;2023-10-31T00:21:59;99107.91;;;12.39;100.00
12969;BME280;6549;53.128;8.182;2023-10-31T00:25:00;99114.50;;;12.41;100.00
12969;BME280;6549;53.128;8.182;2023-10-31T00:28:01;99119.91;;;12.45;100.00
12969;BME280;6549;53.128;8.182;2023-10-31T00:31:01;99119.47;;;12.46;100.00
12969;BME280;6549;53.128;8.182;2023-10-31T00:34:02;99108.13;;;12.44;100.00
12969;BME280;6549;53.128;8.182;2023-10-31T00:37:02;99110.09;;;12.44;100.00
12969;BME280;6549;53.128;8.182;2023-10-31T00:40:03;99108.88;;;12.45;100.00
12969;BME280;6549;53.128;8.182;2023-10-31T00:43:03;99108.47;;;12.46;100.00
12969;BME280;6549;53.128;8.182;2023-10-31T00:46:04;99103.84;;;12.43;100.00
12969;BME280;6549;53.128;8.182;2023-10-31T00:49:04;99105.81;;;12.43;100.00
12969;BME280;6549;53.128;8.182;2023-10-31T00:52:05;99107.00;;;12.42;100.00
12969;BME280;6549;53.128;8.182;2023-10-31T00:55:05;99101.50;;;12.42;100.00
12969;BME280;6549;53.128;8.182;2023-10-31T00:58:06;99103.06;;;12.43;100.00
12969;BME280;6549;53.128;8.182;2023-10-31T01:01:06;99104.59;;;12.44;100.00
12969;BME280;6549;53.128;8.182;2023-10-31T01:04:06;99094.88;;;12.39;100.00
12969;BME280;6549;53.128;8.182;2023-10-31T01:07:07;99097.31;;;12.37;100.00
12969;BME280;6549;53.128;8.182;2023-10-31T01:10:11;99089.03;;;12.37;100.00
12969;BME280;6549;53.128;8.182;2023-10-31T01:13:12;99078.81;;;12.38;100.00
12969;BME280;6549;53.128;8.182;2023-10-31T01:16:12;99072.94;;;12.36;100.00
12969;BME280;6549;53.128;8.182;2023-10-31T01:19:12;99076.03;;;12.38;100.00
12969;BME280;6549;53.128;8.182;2023-10-31T01:22:13;99076.03;;;12.38;100.00
12969;BME280;6549;53.128;8.182;2023-10-31T01:25:13;99068.09;;;12.40;100.00
12969;BME280;6549;53.128;8.182;2023-10-31T01:28:13;99066.91;;;12.41;100.00
12969;BME280;6549;53.128;8.182;2023-10-31T01:31:14;99059.53;;;12.38;100.00
12969;BME280;6549;53.128;8.182;2023-10-31T01:34:14;99049.72;;;12.37;100.00
12969;BME280;6549;53.128;8.182;2023-10-31T01:37:14;99043.84;;;12.35;100.00
12969;BME280;6549;53.128;8.182;2023-10-31T01:40:15;99061.94;;;12.36;100.00
12969;BME280;6549;53.128;8.182;2023-10-31T01:43:35;99051.16;;;12.41;100.00
12969;BME280;6549;53.128;8.182;2023-10-31T01:46:36;99054.00;;;12.38;100.00
12969;BME280;6549;53.128;8.182;2023-10-31T01:49:36;99054.78;;;12.38;100.00
12969;BME280;6549;53.128;8.182;2023-10-31T01:52:37;99039.13;;;12.35;100.00
12969;BME280;6549;53.128;8.182;2023-10-31T01:55:37;99055.66;;;12.35;100.00
12969;BME280;6549;53.128;8.182;2023-10-31T01:58:39;99042.66;;;12.36;100.00
12969;BME280;6549;53.128;8.182;2023-10-31T02:01:39;99030.44;;;12.37;100.00
12969;BME280;6549;53.128;8.182;2023-10-31T02:04:40;99028.44;;;12.37;100.00
12969;BME280;6549;53.128;8.182;2023-10-31T02:07:44;99033.41;;;12.42;100.00
12969;BME280;6549;53.128;8.182;2023-10-31T02:10:45;99025.69;;;12.37;100.00
12969;BME280;6549;53.128;8.182;2023-10-31T02:13:45;99015.88;;;12.36;100.00
12969;BME280;6549;53.128;8.182;2023-10-31T02:16:46;99005.97;;;12.39;100.00
12969;BME280;6549;53.128;8.182;2023-10-31T02:19:46;99012.25;;;12.39;100.00
12969;BME280;6549;53.128;8.182;2023-10-31T02:22:46;99007.50;;;12.40;100.00
12969;BME280;6549;53.128;8.182;2023-10-31T02:25:48;99017.00;;;12.39;100.00
12969;BME280;6549;53.128;8.182;2023-10-31T02:28:48;99011.81;;;12.41;100.00
12969;BME280;6549;53.128;8.182;2023-10-31T02:31:48;99000.34;;;12.42;100.00
12969;BME280;6549;53.128;8.182;2023-10-31T02:34:49;99006.19;;;12.44;100.00
12969;BME280;6549;53.128;8.182;2023-10-31T02:37:49;99005.41;;;12.44;100.00
12969;BME280;6549;53.128;8.182;2023-10-31T02:40:50;98997.91;;;12.44;100.00
12969;BME280;6549;53.128;8.182;2023-10-31T02:43:50;99000.25;;;12.46;100.00
12969;BME280;6549;53.128;8.182;2023-10-31T02:46:50;98997.16;;;12.44;100.00
12969;BME280;6549;53.128;8.182;2023-10-31T02:49:51;98993.19;;;12.45;100.00
12969;BME280;6549;53.128;8.182;2023-10-31T02:52:51;98998.25;;;12.46;100.00
12969;BME280;6549;53.128;8.182;2023-10-31T02:55:51;98988.44;;;12.45;100.00
12969;BME280;6549;53.128;8.182;2023-10-31T02:58:51;98983.28;;;12.47;100.00
12969;BME280;6549;53.128;8.182;2023-10-31T03:01:52;98981.38;;;12.44;100.00
12969;BME280;6549;53.128;8.182;2023-10-31T03:04:53;98982.63;;;12.43;100.00
12969;BME280;6549;53.128;8.182;2023-10-31T03:07:53;98978.22;;;12.46;100.00
12969;BME280;6549;53.128;8.182;2023-10-31T03:10:53;98975.44;;;12.46;100.00
12969;BME280;6549;53.128;8.182;2023-10-31T03:13:54;98973.59;;;12.43;100.00
12969;BME280;6549;53.128;8.182;2023-10-31T03:16:56;98966.97;;;12.40;100.00
12969;BME280;6549;53.128;8.182;2023-10-31T03:19:56;98957.50;;;12.41;100.00
12969;BME280;6549;53.128;8.182;2023-10-31T03:22:56;98952.41;;;12.40;100.00
12969;BME280;6549;53.128;8.182;2023-10-31T03:25:57;98948.22;;;12.35;100.00
12969;BME280;6549;53.128;8.182;2023-10-31T03:28:57;98949.13;;;12.32;100.00
12969;BME280;6549;53.128;8.182;2023-10-31T03:31:57;98953.84;;;12.32;100.00
12969;BME280;6549;53.128;8.182;2023-10-31T03:34:58;98949.13;;;12.32;100.00
12969;BME280;6549;53.128;8.182;2023-10-31T03:37:58;98945.28;;;12.30;100.00
12969;BME280;6549;53.128;8.182;2023-10-31T03:40:59;98943.72;;;12.29;100.00
12969;BME280;6549;53.128;8.182;2023-10-31T03:43:59;98946.03;;;12.30;100.00
12969;BME280;6549;53.128;8.182;2023-10-31T03:46:59;98941.28;;;12.31;100.00
12969;BME280;6549;53.128;8.182;2023-10-31T03:50:00;98940.84;;;12.32;100.00
12969;BME280;6549;53.128;8.182;2023-10-31T03:53:00;98933.38;;;12.33;100.00
12969;BME280;6549;53.128;8.182;2023-10-31T03:56:00;98934.44;;;12.35;100.00
12969;BME280;6549;53.128;8.182;2023-10-31T03:59:01;98943.06;;;12.37;100.00
12969;BME280;6549;53.128;8.182;2023-10-31T04:02:01;98931.25;;;12.37;100.00
12969;BME280;6549;53.128;8.182;2023-10-31T04:05:01;98938.31;;;12.38;100.00
12969;BME280;6549;53.128;8.182;2023-10-31T04:08:02;98936.78;;;12.37;100.00
12969;BME280;6549;53.128;8.182;2023-10-31T04:11:02;98946.13;;;12.39;100.00
12969;BME280;6549;53.128;8.182;2023-10-31T04:14:03;98944.16;;;12.40;100.00
12969;BME280;6549;53.128;8.182;2023-10-31T04:17:04;98944.50;;;12.42;100.00
12969;BME280;6549;53.128;8.182;2023-10-31T04:20:05;98935.44;;;12.41;100.00
12969;BME280;6549;53.128;8.182;2023-10-31T04:23:06;98942.50;;;12.42;100.00
12969;BME280;6549;53.128;8.182;2023-10-31T04:26:06;98939.41;;;12.40;100.00
12969;BME280;6549;53.128;8.182;2023-10-31T04:29:06;98938.22;;;12.41;100.00
12969;BME280;6549;53.128;8.182;2023-10-31T04:32:07;98932.34;;;12.39;100.00
12969;BME280;6549;53.128;8.182;2023-10-31T04:35:07;98925.75;;;12.37;100.00
12969;BME280;6549;53.128;8.182;2023-10-31T04:38:08;98921.78;;;12.38;100.00
12969;BME280;6549;53.128;8.182;2023-10-31T04:41:08;98934.78;;;12.37;100.00
12969;BME280;6549;53.128;8.182;2023-10-31T04:44:09;98927.44;;;12.34;100.00
12969;BME280;6549;53.128;8.182;2023-10-31T04:47:10;98929.72;;;12.36;100.00
12969;BME280;6549;53.128;8.182;2023-10-31T04:50:10;98937.56;;;12.37;100.00
12969;BME280;6549;53.128;8.182;2023-10-31T04:53:10;98950.66;;;12.33;100.00
12969;BME280;6549;53.128;8.182;2023-10-31T04:56:15;98959.13;;;12.26;100.00
12969;BME280;6549;53.128;8.182;2023-10-31T04:59:15;98974.00;;;12.03;100.00
12969;BME280;6549;53.128;8.182;2023-10-31T05:02:15;98986.97;;;11.90;100.00
12969;BME280;6549;53.128;8.182;2023-10-31T05:05:16;99012.53;;;11.75;100.00
12969;BME280;6549;53.128;8.182;2023-10-31T05:08:16;99014.56;;;11.58;100.00
12969;BME280;6549;53.128;8.182;2023-10-31T05:11:17;99024.81;;;11.41;100.00
12969;BME280;6549;53.128;8.182;2023-10-31T05:14:18;99030.69;;;11.27;100.00
12969;BME280;6549;53.128;8.182;2023-10-31T05:17:18;99023.88;;;11.15;100.00
12969;BME280;6549;53.128;8.182;2023-10-31T05:20:18;99043.81;;;11.03;100.00
12969;BME280;6549;53.128;8.182;2023-10-31T05:23:20;99049.84;;;10.98;100.00
12969;BME280;6549;53.128;8.182;2023-10-31T05:26:20;99053.03;;;10.97;100.00
12969;BME280;6549;53.128;8.182;2023-10-31T05:29:21;99060.31;;;10.87;100.00
12969;BME280;6549;53.128;8.182;2023-10-31T05:32:21;99061.25;;;10.80;100.00
12969;BME280;6549;53.128;8.182;2023-10-31T05:35:22;99073.19;;;10.74;100.00
12969;BME280;6549;53.128;8.182;2023-10-31T05:38:22;99078.00;;;10.70;100.00
12969;BME280;6549;53.128;8.182;2023-10-31T05:41:23;99097.22;;;10.70;100.00
12969;BME280;6549;53.128;8.182;2023-10-31T05:44:23;99103.91;;;10.69;100.00
12969;BME280;6549;53.128;8.182;2023-10-31T05:47:23;99105.88;;;10.68;100.00
12969;BME280;6549;53.128;8.182;2023-10-31T05:50:23;99112.16;;;10.69;100.00
12969;BME280;6549;53.128;8.182;2023-10-31T05:53:24;99121.94;;;10.70;100.00
12969;BME280;6549;53.128;8.182;2023-10-31T05:56:24;99122.72;;;10.70;100.00
12969;BME280;6549;53.128;8.182;2023-10-31T05:59:24;99135.69;;;10.70;100.00
12969;BME280;6549;53.128;8.182;2023-10-31T06:02:25;99139.63;;;10.69;100.00
12969;BME280;6549;53.128;8.182;2023-10-31T06:05:25;99159.34;;;10.64;100.00
12969;BME280;6549;53.128;8.182;2023-10-31T06:08:26;99160.63;;;10.59;100.00
12969;BME280;6549;53.128;8.182;2023-10-31T06:11:29;99175.97;;;10.57;100.00
12969;BME280;6549;53.128;8.182;2023-10-31T06:14:29;99187.78;;;10.54;100.00
12969;BME280;6549;53.128;8.182;2023-10-31T06:17:29;99189.00;;;10.53;100.00
12969;BME280;6549;53.128;8.182;2023-10-31T06:20:33;99205.50;;;10.53;100.00
12969;BME280;6549;53.128;8.182;2023-10-31T06:23:36;99202.31;;;10.54;100.00
12969;BME280;6549;53.128;8.182;2023-10-31T06:26:37;99203.16;;;10.51;100.00
12969;BME280;6549;53.128;8.182;2023-10-31T06:29:37;99213.72;;;10.53;100.00
12969;BME280;6549;53.128;8.182;2023-10-31T06:32:37;99223.16;;;10.52;100.00
12969;BME280;6549;53.128;8.182;2023-10-31T06:35:40;99232.19;;;10.52;100.00
12969;BME280;6549;53.128;8.182;2023-10-31T06:38:40;99231.75;;;10.54;100.00
12969;BME280;6549;53.128;8.182;2023-10-31T06:41:41;99250.22;;;10.53;100.00
12969;BME280;6549;53.128;8.182;2023-10-31T06:44:41;99250.97;;;10.54;100.00
12969;BME280;6549;53.128;8.182;2023-10-31T06:47:41;99271.88;;;10.48;100.00
12969;BME280;6549;53.128;8.182;2023-10-31T06:50:42;99269.06;;;10.51;100.00
12969;BME280;6549;53.128;8.182;2023-10-31T06:53:42;99277.69;;;10.53;100.00
12969;BME280;6549;53.128;8.182;2023-10-31T06:56:42;99286.31;;;10.52;100.00
12969;BME280;6549;53.128;8.182;2023-10-31T06:59:43;99288.66;;;10.53;100.00
12969;BME280;6549;53.128;8.182;2023-10-31T07:02:43;99290.19;;;10.54;100.00
12969;BME280;6549;53.128;8.182;2023-10-31T07:05:43;99304.28;;;10.56;100.00
12969;BME280;6549;53.128;8.182;2023-10-31T07:08:44;99303.94;;;10.54;100.00
12969;BME280;6549;53.128;8.182;2023-10-31T07:11:44;99309.50;;;10.51;100.00
12969;BME280;6549;53.128;8.182;2023-10-31T07:14:44;99323.22;;;10.51;100.00
12969;BME280;6549;53.128;8.182;2023-10-31T07:17:44;99327.88;;;10.54;100.00
12969;BME280;6549;53.128;8.182;2023-10-31T07:20:45;99329.88;;;10.53;100.00
12969;BME280;6549;53.128;8.182;2023-10-31T07:23:45;99330.63;;;10.54;100.00
12969;BME280;6549;53.128;8.182;2023-10-31T07:26:46;99330.97;;;10.56;100.00
12969;BME280;6549;53.128;8.182;2023-10-31T07:29:46;99347.88;;;10.54;100.00
12969;BME280;6549;53.128;8.182;2023-10-31T07:32:46;99346.75;;;10.52;100.00
12969;BME280;6549;53.128;8.182;2023-10-31T07:35:47;99347.94;;;10.51;100.00
12969;BME280;6549;53.128;8.182;2023-10-31T07:38:47;99351.88;;;10.50;100.00
12969;BME280;6549;53.128;8.182;2023-10-31T07:41:48;99360.47;;;10.52;100.00
12969;BME280;6549;53.128;8.182;2023-10-31T07:44:48;99357.38;;;10.50;100.00
12969;BME280;6549;53.128;8.182;2023-10-31T07:47:49;99363.22;;;10.52;100.00
12969;BME280;6549;53.128;8.182;2023-10-31T07:50:50;99364.06;;;10.49;100.00
12969;BME280;6549;53.128;8.182;2023-10-31T07:53:50;99367.56;;;10.49;100.00
12969;BME280;6549;53.128;8.182;2023-10-31T07:56:50;99360.47;;;10.52;100.00
12969;BME280;6549;53.128;8.182;2023-10-31T07:59:51;99362.38;;;10.55;100.00
12969;BME280;6549;53.128;8.182;2023-10-31T08:02:51;99366.69;;;10.56;100.00
12969;BME280;6549;53.128;8.182;2023-10-31T08:05:51;99372.13;;;10.59;100.00
12969;BME280;6549;53.128;8.182;2023-10-31T08:08:52;99380.28;;;10.63;100.00
12969;BME280;6549;53.128;8.182;2023-10-31T08:11:52;99379.47;;;10.66;100.00
12969;BME280;6549;53.128;8.182;2023-10-31T08:14:53;99382.22;;;10.66;100.00
12969;BME280;6549;53.128;8.182;2023-10-31T08:17:53;99385.75;;;10.66;100.00
12969;BME280;6549;53.128;8.182;2023-10-31T08:20:53;99386.88;;;10.69;100.00
12969;BME280;6549;53.128;8.182;2023-10-31T08:23:54;99380.53;;;10.72;100.00
12969;BME280;6549;53.128;8.182;2023-10-31T08:26:54;99390.34;;;10.73;100.00
12969;BME280;6549;53.128;8.182;2023-10-31T08:29:55;99395.03;;;10.72;100.00
12969;BME280;6549;53.128;8.182;2023-10-31T08:32:55;99391.09;;;10.73;100.00
12969;BME280;6549;53.128;8.182;2023-10-31T08:35:55;99401.31;;;10.73;100.00
12969;BME280;6549;53.128;8.182;2023-10-31T08:38:56;99398.56;;;10.73;100.00
12969;BME280;6549;53.128;8.182;2023-10-31T08:41:57;99402.03;;;10.77;100.00
12969;BME280;6549;53.128;8.182;2023-10-31T08:44:57;99408.69;;;10.79;100.00
12969;BME280;6549;53.128;8.182;2023-10-31T08:47:58;99415.69;;;10.80;100.00
12969;BME280;6549;53.128;8.182;2023-10-31T08:50:58;99422.34;;;10.83;100.00
12969;BME280;6549;53.128;8.182;2023-10-31T08:53:58;99413.25;;;10.86;100.00
12969;BME280;6549;53.128;8.182;2023-10-31T08:56:59;99418.28;;;10.91;100.00
12969;BME280;6549;53.128;8.182;2023-10-31T08:59:59;99433.91;;;10.94;100.00
12969;BME280;6549;53.128;8.182;2023-10-31T09:03:00;99433.50;;;10.96;100.00
12969;BME280;6549;53.128;8.182;2023-10-31T09:06:00;99439.31;;;11.01;100.00
12969;BME280;6549;53.128;8.182;2023-10-31T09:09:01;99446.41;;;10.99;100.00
12969;BME280;6549;53.128;8.182;2023-10-31T09:12:01;99447.66;;;10.94;100.00
12969;BME280;6549;53.128;8.182;2023-10-31T09:15:01;99464.16;;;10.94;100.00
12969;BME280;6549;53.128;8.182;2023-10-31T09:18:02;99460.63;;;10.94;100.00
12969;BME280;6549;53.128;8.182;2023-10-31T09:21:02;99466.56;;;10.92;100.00
12969;BME280;6549;53.128;8.182;2023-10-31T09:24:03;99469.31;;;10.92;100.00
12969;BME280;6549;53.128;8.182;2023-10-31T09:27:03;99472.78;;;10.96;100.00
12969;BME280;6549;53.128;8.182;2023-10-31T09:30:04;99488.06;;;10.97;100.00
12969;BME280;6549;53.128;8.182;2023-10-31T09:33:05;99490.31;;;11.02;100.00
12969;BME280;6549;53.128;8.182;2023-10-31T09:36:05;99487.03;;;11.11;100.00
12969;BME280;6549;53.128;8.182;2023-10-31T09:39:06;99495.22;;;11.14;100.00
12969;BME280;6549;53.128;8.182;2023-10-31T09:42:06;99507.25;;;11.24;100.00
12969;BME280;6549;53.128;8.182;2023-10-31T09:45:08;99497.66;;;11.32;100.00
12969;BME280;6549;53.128;8.182;2023-10-31T09:48:08;99512.53;;;11.35;100.00
12969;BME280;6549;53.128;8.182;2023-10-31T09:51:09;99503.09;;;11.36;100.00
12969;BME280;6549;53.128;8.182;2023-10-31T09:54:12;99510.03;;;11.44;100.00
12969;BME280;6549;53.128;8.182;2023-10-31T09:57:16;99510.88;;;11.41;100.00
12969;BME280;6549;53.128;8.182;2023-10-31T10:00:18;99508.53;;;11.39;100.00
12969;BME280;6549;53.128;8.182;2023-10-31T10:03:18;99515.66;;;11.37;100.00
12969;BME280;6549;53.128;8.182;2023-10-31T10:06:20;99516.13;;;11.32;100.00
12969;BME280;6549;53.128;8.182;2023-10-31T10:09:21;99522.41;;;11.32;100.00
12969;BME280;6549;53.128;8.182;2023-10-31T10:12:22;99525.09;;;11.36;100.00
12969;BME280;6549;53.128;8.182;2023-10-31T10:15:22;99526.28;;;11.35;100.00
12969;BME280;6549;53.128;8.182;2023-10-31T10:18:30;99525.09;;;11.36;100.00
12969;BME280;6549;53.128;8.182;2023-10-31T10:21:46;99516.44;;;11.37;100.00
12969;BME280;6549;53.128;8.182;2023-10-31T10:24:46;99518.41;;;11.37;100.00
12969;BME280;6549;53.128;8.182;2023-10-31T10:27:47;99524.25;;;11.39;100.00
12969;BME280;6549;53.128;8.182;2023-10-31T10:30:48;99525.34;;;11.45;100.00
12969;BME280;6549;53.128;8.182;2023-10-31T10:33:49;99531.16;;;11.47;100.00
12969;BME280;6549;53.128;8.182;2023-10-31T10:36:49;99535.47;;;11.48;100.00
12969;BME280;6549;53.128;8.182;2023-10-31T10:39:51;99543.25;;;11.53;100.00
12969;BME280;6549;53.128;8.182;2023-10-31T10:42:58;99540.88;;;11.55;100.00
12969;BME280;6549;53.128;8.182;2023-10-31T10:46:01;99539.66;;;11.56;100.00
12969;BME280;6549;53.128;8.182;2023-10-31T10:49:06;99546.94;;;11.66;100.00
12969;BME280;6549;53.128;8.182;2023-10-31T10:52:22;99544.03;;;11.77;100.00
12969;BME280;6549;53.128;8.182;2023-10-31T10:55:27;99548.28;;;11.81;100.00
12969;BME280;6549;53.128;8.182;2023-10-31T11:01:49;99561.41;;;11.93;100.00
12969;BME280;6549;53.128;8.182;2023-10-31T11:04:49;99558.97;;;11.95;100.00
12969;BME280;6549;53.128;8.182;2023-10-31T11:07:51;99562.03;;;12.01;100.00
12969;BME280;6549;53.128;8.182;2023-10-31T11:10:52;99569.50;;;12.00;100.00
12969;BME280;6549;53.128;8.182;2023-10-31T11:13:55;99564.00;;;12.00;100.00
12969;BME280;6549;53.128;8.182;2023-10-31T11:17:01;99566.34;;;12.02;100.00
12969;BME280;6549;53.128;8.182;2023-10-31T11:20:05;99567.13;;;12.02;100.00
12969;BME280;6549;53.128;8.182;2023-10-31T11:23:07;99576.09;;;12.06;100.00
12969;BME280;6549;53.128;8.182;2023-10-31T11:26:08;99573.94;;;12.14;100.00
12969;BME280;6549;53.128;8.182;2023-10-31T11:29:11;99583.69;;;12.19;100.00
12969;BME280;6549;53.128;8.182;2023-10-31T11:32:14;99582.91;;;12.18;100.00
12969;BME280;6549;53.128;8.182;2023-10-31T11:35:16;99588.88;;;12.17;100.00
12969;BME280;6549;53.128;8.182;2023-10-31T11:38:16;99590.13;;;12.12;100.00
12969;BME280;6549;53.128;8.182;2023-10-31T11:41:27;99617.50;;;11.99;100.00
12969;BME280;6549;53.128;8.182;2023-10-31T11:44:28;99638.09;;;11.91;100.00
12969;BME280;6549;53.128;8.182;2023-10-31T11:47:48;99649.19;;;11.88;100.00
12969;BME280;6549;53.128;8.182;2023-10-31T11:50:48;99656.38;;;11.82;100.00
12969;BME280;6549;53.128;8.182;2023-10-31T11:53:49;99661.22;;;11.74;100.00
12969;BME280;6549;53.128;8.182;2023-10-31T11:56:52;99673.03;;;11.71;100.00
12969;BME280;6549;53.128;8.182;2023-10-31T11:59:53;99686.44;;;11.69;100.00
12969;BME280;6549;53.128;8.182;2023-10-31T12:02:57;99701.75;;;11.70;100.00
12969;BME280;6549;53.128;8.182;2023-10-31T12:05:58;99711.19;;;11.73;100.00
12969;BME280;6549;53.128;8.182;2023-10-31T12:09:01;99717.09;;;11.71;100.00
12969;BME280;6549;53.128;8.182;2023-10-31T12:12:02;99721.94;;;11.63;100.00
12969;BME280;6549;53.128;8.182;2023-10-31T12:15:09;99729.88;;;11.58;100.00
12969;BME280;6549;53.128;8.182;2023-10-31T12:18:09;99741.66;;;11.58;100.00
12969;BME280;6549;53.128;8.182;2023-10-31T12:21:10;99748.75;;;11.56;100.00
12969;BME280;6549;53.128;8.182;2023-10-31T12:24:18;99765.25;;;11.56;100.00
12969;BME280;6549;53.128;8.182;2023-10-31T12:27:18;99774.28;;;11.56;100.00
12969;BME280;6549;53.128;8.182;2023-10-31T12:30:21;99785.63;;;11.62;100.00
12969;BME280;6549;53.128;8.182;2023-10-31T12:33:22;99793.41;;;11.67;100.00
12969;BME280;6549;53.128;8.182;2023-10-31T12:36:25;99802.47;;;11.64;100.00
12969;BME280;6549;53.128;8.182;2023-10-31T12:39:26;99806.84;;;11.61;100.00
12969;BME280;6549;53.128;8.182;2023-10-31T12:42:27;99814.84;;;11.52;100.00
12969;BME280;6549;53.128;8.182;2023-10-31T12:45:30;99810.97;;;11.50;100.00
12969;BME280;6549;53.128;8.182;2023-10-31T12:48:31;99821.13;;;11.53;100.00
12969;BME280;6549;53.128;8.182;2023-10-31T12:51:32;99833.69;;;11.54;100.00
12969;BME280;6549;53.128;8.182;2023-10-31T12:54:34;99834.78;;;11.60;100.00
12969;BME280;6549;53.128;8.182;2023-10-31T12:57:35;99840.72;;;11.58;100.00
12969;BME280;6549;53.128;8.182;2023-10-31T13:00:36;99833.50;;;11.68;100.00
12969;BME280;6549;53.128;8.182;2023-10-31T13:03:48;99841.56;;;11.82;100.00
12969;BME280;6549;53.128;8.182;2023-10-31T13:07:15;99854.50;;;11.85;100.00
12969;BME280;6549;53.128;8.182;2023-10-31T13:10:16;99859.41;;;11.70;100.00
12969;BME280;6549;53.128;8.182;2023-10-31T13:13:17;99875.38;;;11.52;100.00
12969;BME280;6549;53.128;8.182;2023-10-31T13:16:17;99884.91;;;11.44;100.00
12969;BME280;6549;53.128;8.182;2023-10-31T13:19:17;99886.53;;;11.42;100.00
12969;BME280;6549;53.128;8.182;2023-10-31T13:22:18;99896.47;;;11.32;100.00
12969;BME280;6549;53.128;8.182;2023-10-31T13:25:18;99894.13;;;11.31;100.00
12969;BME280;6549;53.128;8.182;2023-10-31T13:28:18;99895.69;;;11.32;100.00
12969;BME280;6549;53.128;8.182;2023-10-31T13:31:19;99891.31;;;11.34;100.00
12969;BME280;6549;53.128;8.182;2023-10-31T13:34:19;99899.63;;;11.31;100.00
12969;BME280;6549;53.128;8.182;2023-10-31T13:37:19;99905.13;;;11.31;100.00
12969;BME280;6549;53.128;8.182;2023-10-31T13:40:20;99910.63;;;11.31;100.00
12969;BME280;6549;53.128;8.182;2023-10-31T13:43:21;99908.66;;;11.31;100.00
12969;BME280;6549;53.128;8.182;2023-10-31T13:46:22;99916.94;;;11.27;100.00
12969;BME280;6549;53.128;8.182;2023-10-31T13:49:23;99914.19;;;11.27;100.00
12969;BME280;6549;53.128;8.182;2023-10-31T13:52:24;99917.34;;;11.26;100.00
12969;BME280;6549;53.128;8.182;2023-10-31T13:55:24;99917.34;;;11.26;100.00
12969;BME280;6549;53.128;8.182;2023-10-31T13:58:25;99913.47;;;11.23;100.00
12969;BME280;6549;53.128;8.182;2023-10-31T14:01:25;99918.19;;;11.23;100.00
12969;BME280;6549;53.128;8.182;2023-10-31T14:04:26;99921.31;;;11.21;100.00
12969;BME280;6549;53.128;8.182;2023-10-31T14:07:26;99933.88;;;11.22;100.00
12969;BME280;6549;53.128;8.182;2023-10-31T14:10:27;99939.75;;;11.24;100.00
12969;BME280;6549;53.128;8.182;2023-10-31T14:13:27;99943.22;;;11.28;100.00
12969;BME280;6549;53.128;8.182;2023-10-31T14:16:27;99943.28;;;11.25;100.00
12969;BME280;6549;53.128;8.182;2023-10-31T14:19:28;99943.72;;;11.23;100.00
12969;BME280;6549;53.128;8.182;2023-10-31T14:22:28;99950.44;;;11.19;100.00
12969;BME280;6549;53.128;8.182;2023-10-31T14:25:28;99953.59;;;11.17;100.00
12969;BME280;6549;53.128;8.182;2023-10-31T14:28:29;99964.97;;;11.19;100.00
12969;BME280;6549;53.128;8.182;2023-10-31T14:31:29;99965.75;;;11.16;100.00
12969;BME280;6549;53.128;8.182;2023-10-31T14:34:29;99970.09;;;11.17;100.00
12969;BME280;6549;53.128;8.182;2023-10-31T14:37:30;99967.78;;;11.12;100.00
12969;BME280;6549;53.128;8.182;2023-10-31T14:40:30;99965.41;;;11.11;100.00
12969;BME280;6549;53.128;8.182;2023-10-31T14:43:30;99970.97;;;11.07;100.00
12969;BME280;6549;53.128;8.182;2023-10-31T14:46:31;99963.16;;;11.02;100.00
12969;BME280;6549;53.128;8.182;2023-10-31T14:49:32;99975.00;;;10.96;100.00
12969;BME280;6549;53.128;8.182;2023-10-31T14:52:32;99973.47;;;10.91;100.00
12969;BME280;6549;53.128;8.182;2023-10-31T14:55:33;99975.47;;;10.87;100.00
12969;BME280;6549;53.128;8.182;2023-10-31T14:58:33;99970.41;;;10.82;100.00
12969;BME280;6549;53.128;8.182;2023-10-31T15:01:33;99973.56;;;10.80;100.00
12969;BME280;6549;53.128;8.182;2023-10-31T15:04:33;99970.84;;;10.77;100.00
12969;BME280;6549;53.128;8.182;2023-10-31T15:07:34;99975.22;;;10.71;100.00
12969;BME280;6549;53.128;8.182;2023-10-31T15:10:34;99974.88;;;10.65;100.00
12969;BME280;6549;53.128;8.182;2023-10-31T15:13:35;99983.94;;;10.59;100.00
12969;BME280;6549;53.128;8.182;2023-10-31T15:16:35;99996.56;;;10.53;100.00
12969;BME280;6549;53.128;8.182;2023-10-31T15:19:36;100004.06;;;10.42;100.00
12969;BME280;6549;53.128;8.182;2023-10-31T15:22:36;100007.22;;;10.40;100.00
12969;BME280;6549;53.128;8.182;2023-10-31T15:25:37;100014.31;;;10.38;100.00
12969;BME280;6549;53.128;8.182;2023-10-31T15:28:37;100018.63;;;10.39;100.00
12969;BME280;6549;53.128;8.182;2023-10-31T15:31:43;100027.22;;;10.41;100.00
12969;BME280;6549;53.128;8.182;2023-10-31T15:34:43;100032.78;;;10.33;100.00
12969;BME280;6549;53.128;8.182;2023-10-31T15:37:44;100039.84;;;10.34;100.00
12969;BME280;6549;53.128;8.182;2023-10-31T15:40:44;100043.38;;;10.35;100.00
12969;BME280;6549;53.128;8.182;2023-10-31T15:43:45;100044.94;;;10.32;100.00
12969;BME280;6549;53.128;8.182;2023-10-31T15:46:45;100056.31;;;10.34;100.00
12969;BME280;6549;53.128;8.182;2023-10-31T15:49:46;100048.84;;;10.31;100.00
12969;BME280;6549;53.128;8.182;2023-10-31T15:52:46;100057.88;;;10.32;100.00
12969;BME280;6549;53.128;8.182;2023-10-31T15:55:46;100047.69;;;10.32;100.00
12969;BME280;6549;53.128;8.182;2023-10-31T15:58:47;100056.31;;;10.34;100.00
12969;BME280;6549;53.128;8.182;2023-10-31T16:01:47;100058.25;;;10.38;100.00